createdAt,value
2023-02-24T00:01:37.735Z,50.42
2023-02-24T00:04:07.431Z,50.15
2023-02-24T00:06:36.902Z,75.57
2023-02-24T00:09:12.932Z,606.38
2023-02-24T00:11:44.003Z,602.10
2023-02-24T00:14:15.859Z,784.53
2023-02-24T00:16:44.344Z,1933.68
2023-02-24T00:19:17.491Z,1058.15
2023-02-24T00:21:44.907Z,1148.63
2023-02-24T00:24:11.928Z,1957.78
2023-02-24T00:26:38.891Z,1999.90
2023-02-24T00:29:07.421Z,1999.90
2023-02-24T00:31:34.399Z,1999.90
2023-02-24T00:34:01.940Z,1384.88
2023-02-24T00:36:30.449Z,1839.38
2023-02-24T00:38:59.016Z,1641.88
2023-02-24T00:41:31.268Z,1047.53
2023-02-24T00:44:07.946Z,1246.65
2023-02-24T00:46:37.215Z,1184.25
2023-02-24T00:49:06.367Z,1363.53
2023-02-24T00:51:38.391Z,1107.32
2023-02-24T00:54:05.811Z,1022.28
2023-02-24T00:56:32.705Z,1040.10
2023-02-24T00:59:00.057Z,995.92
2023-02-24T01:01:32.263Z,1468.30
2023-02-24T01:04:00.150Z,1000.40
2023-02-24T01:06:29.267Z,566.63
2023-02-24T01:08:57.185Z,1483.65
2023-02-24T01:11:47.506Z,1146.10
2023-02-24T01:14:16.675Z,1604.32
2023-02-24T01:16:50.540Z,1072.63
2023-02-24T01:19:30.369Z,1610.10
2023-02-24T01:22:02.515Z,814.90
2023-02-24T01:24:32.281Z,1508.15
2023-02-24T01:26:58.978Z,1584.97
2023-02-24T01:29:26.028Z,1461.85
2023-02-24T01:31:58.530Z,1611.25
2023-02-24T01:34:26.615Z,886.70
2023-02-24T01:36:53.741Z,911.75
2023-02-24T01:39:21.045Z,1214.78
2023-02-24T01:41:50.181Z,988.08
2023-02-24T01:44:22.468Z,837.03
2023-02-24T01:46:51.770Z,943.05
2023-02-24T01:49:21.209Z,1060.80
2023-02-24T01:51:52.192Z,897.42
2023-02-24T01:54:22.387Z,1116.78
2023-02-24T01:56:52.787Z,1312.60
2023-02-24T01:59:20.356Z,1286.93
2023-02-24T02:01:48.428Z,1999.90
2023-02-24T02:04:44.189Z,1059.68
2023-02-24T02:07:16.635Z,1040.57
2023-02-24T02:09:44.517Z,1484.72
2023-02-24T02:12:11.838Z,1501.15
2023-02-24T02:14:43.045Z,1169.22
2023-02-24T02:17:12.642Z,1325.95
2023-02-24T02:19:45.154Z,1236.30
2023-02-24T02:22:17.020Z,1071.10
2023-02-24T02:24:55.148Z,1350.95
2023-02-24T02:27:59.998Z,1041.00
2023-02-24T02:30:45.588Z,1408.55
2023-02-24T02:33:21.616Z,1308.82
2023-02-24T02:36:03.081Z,1473.47
2023-02-24T02:38:38.553Z,1417.57
2023-02-24T02:41:36.363Z,687.42
2023-02-24T02:44:21.471Z,636.60
2023-02-24T02:49:30.626Z,525.20
2023-02-24T02:52:14.022Z,558.40
2023-02-24T02:54:49.560Z,455.00
2023-02-24T02:57:25.242Z,482.35
2023-02-24T02:59:59.898Z,520.42
2023-02-24T03:04:58.591Z,159.23
2023-02-24T03:07:31.304Z,769.40
2023-02-24T03:10:10.521Z,833.10
2023-02-24T03:12:39.524Z,901.28
2023-02-24T03:15:09.272Z,569.55
2023-02-24T03:17:40.819Z,620.08
2023-02-24T03:20:18.276Z,502.90
2023-02-24T03:22:54.180Z,878.15
2023-02-24T03:25:24.742Z,1083.55
2023-02-24T03:27:57.091Z,788.88
2023-02-24T03:30:30.864Z,1149.38
2023-02-24T03:33:08.895Z,631.63
2023-02-24T03:35:40.599Z,707.95
2023-02-24T03:38:10.116Z,1217.93
2023-02-24T03:40:43.251Z,1128.88
2023-02-24T03:43:26.241Z,802.72
2023-02-24T03:45:53.816Z,660.10
2023-02-24T03:48:20.710Z,1039.40
2023-02-24T03:50:47.546Z,1186.00
2023-02-24T03:53:40.809Z,773.90
2023-02-24T03:56:29.364Z,1042.00
2023-02-24T03:59:13.067Z,862.97
2023-02-24T04:02:04.228Z,1060.07
2023-02-24T04:04:38.052Z,1405.78
2023-02-24T04:07:28.389Z,1211.70
2023-02-24T04:10:10.463Z,1185.68
2023-02-24T04:12:46.993Z,895.88
2023-02-24T04:15:39.737Z,1280.72
2023-02-24T04:18:12.558Z,715.25
2023-02-24T04:20:40.243Z,918.25
2023-02-24T04:23:11.458Z,948.90
2023-02-24T04:25:39.759Z,891.72
2023-02-24T04:28:10.157Z,722.25
2023-02-24T04:30:42.269Z,1436.55
2023-02-24T04:33:10.071Z,1577.90
2023-02-24T04:35:37.860Z,1310.50
2023-02-24T04:38:05.340Z,1368.07
2023-02-24T04:40:32.094Z,1697.75
2023-02-24T04:42:58.966Z,1976.60
2023-02-24T04:45:28.962Z,1918.35
2023-02-24T04:48:00.971Z,1773.03
2023-02-24T04:50:32.685Z,1243.95
2023-02-24T04:53:09.364Z,1103.43
2023-02-24T04:55:48.906Z,946.33
2023-02-24T04:58:28.867Z,877.08
2023-02-24T05:00:56.067Z,582.83
2023-02-24T05:03:28.215Z,685.10
2023-02-24T05:05:58.210Z,583.80
2023-02-24T05:08:26.287Z,738.53
2023-02-24T05:10:53.829Z,590.97
2023-02-24T05:13:28.135Z,519.55
2023-02-24T05:15:57.019Z,281.15
2023-02-24T05:18:24.258Z,324.83
2023-02-24T05:21:12.400Z,473.42
2023-02-24T05:23:44.380Z,419.15
2023-02-24T05:26:16.078Z,380.70
2023-02-24T05:28:46.798Z,567.33
2023-02-24T05:31:20.619Z,713.78
2023-02-24T05:33:50.602Z,428.45
2023-02-24T05:36:18.945Z,321.20
2023-02-24T05:38:47.145Z,130.20
2023-02-24T05:41:18.865Z,279.80
2023-02-24T05:43:54.824Z,320.42
2023-02-24T05:46:28.208Z,614.78
2023-02-24T05:48:59.300Z,553.47
2023-02-24T05:51:28.107Z,544.75
2023-02-24T05:53:55.623Z,769.42
2023-02-24T05:56:25.343Z,1032.60
2023-02-24T05:59:01.916Z,1654.97
2023-02-24T06:01:30.583Z,706.50
2023-02-24T06:04:05.681Z,1525.82
2023-02-24T06:06:42.734Z,1396.82
2023-02-24T06:09:12.664Z,765.72
2023-02-24T06:11:43.325Z,942.20
2023-02-24T06:14:11.980Z,929.50
2023-02-24T06:16:41.026Z,660.30
2023-02-24T06:19:09.932Z,303.02
2023-02-24T06:21:41.292Z,542.33
2023-02-24T06:24:14.541Z,537.28
2023-02-24T06:26:43.392Z,283.08
2023-02-24T06:29:15.360Z,525.13
2023-02-24T06:31:43.794Z,935.17
2023-02-24T06:34:11.320Z,706.83
2023-02-24T06:36:38.298Z,456.83
2023-02-24T06:39:08.129Z,280.50
2023-02-24T06:41:38.002Z,348.90
2023-02-24T06:44:05.023Z,253.98
2023-02-24T06:46:31.771Z,233.48
2023-02-24T06:48:58.516Z,252.40
2023-02-24T06:51:30.079Z,197.48
2023-02-24T06:53:59.355Z,96.88
2023-02-24T06:56:27.136Z,84.40
2023-02-24T06:58:59.214Z,44.25
2023-02-24T07:01:28.732Z,29.67
2023-02-24T07:04:07.757Z,26.10
2023-02-24T07:06:38.291Z,25.10
2023-02-24T07:09:14.189Z,30.77
2023-02-24T07:11:46.598Z,24.98
2023-02-24T07:14:14.099Z,24.70
2023-02-24T07:16:45.151Z,27.65
2023-02-24T07:19:14.118Z,30.10
2023-02-24T07:21:52.699Z,27.65
2023-02-24T07:24:25.209Z,26.00
2023-02-24T07:26:56.799Z,20.63
2023-02-24T07:29:25.317Z,22.13
2023-02-24T07:31:55.400Z,30.30
2023-02-24T07:34:24.692Z,25.67
2023-02-24T07:36:55.425Z,35.38
2023-02-24T07:39:23.198Z,36.30
2023-02-24T07:41:51.864Z,37.28
2023-02-24T07:44:19.891Z,27.83
2023-02-24T07:46:48.888Z,32.47
2023-02-24T07:49:19.828Z,35.90
2023-02-24T07:51:53.024Z,35.72
2023-02-24T07:54:21.346Z,34.60
2023-02-24T07:56:56.379Z,246.18
2023-02-24T07:59:32.473Z,580.33
2023-02-24T08:02:00.480Z,536.70
2023-02-24T08:04:29.934Z,348.52
2023-02-24T08:06:58.859Z,463.42
2023-02-24T08:09:46.560Z,534.88
2023-02-24T08:12:21.143Z,810.50
2023-02-24T08:14:53.321Z,690.55
2023-02-24T08:17:26.417Z,316.63
2023-02-24T08:20:15.612Z,315.38
2023-02-24T08:22:47.210Z,245.50
2023-02-24T08:25:18.875Z,418.70
2023-02-24T08:28:06.871Z,71.82
2023-02-24T08:30:38.861Z,46.58
2023-02-24T08:33:08.082Z,46.78
2023-02-24T08:35:36.802Z,49.42
2023-02-24T08:38:14.271Z,39.92
2023-02-24T08:40:58.587Z,30.70
2023-02-24T08:43:30.290Z,41.40
2023-02-24T08:46:13.204Z,32.03
2023-02-24T08:48:48.484Z,34.10
2023-02-24T08:51:22.508Z,31.02
2023-02-24T08:53:54.142Z,36.78
2023-02-24T08:56:29.950Z,33.83
2023-02-24T08:59:05.241Z,37.45
2023-02-24T09:01:37.714Z,46.80
2023-02-24T09:04:10.497Z,38.40
2023-02-24T09:06:44.067Z,34.78
2023-02-24T09:09:22.901Z,39.03
2023-02-24T09:11:55.759Z,42.28
2023-02-24T09:14:28.470Z,42.47
2023-02-24T09:17:04.097Z,36.42
2023-02-24T09:19:51.726Z,38.83
2023-02-24T09:22:40.954Z,39.78
2023-02-24T09:25:24.358Z,49.28
2023-02-24T09:28:07.887Z,40.72
2023-02-24T09:30:53.202Z,41.42
2023-02-24T09:33:21.724Z,41.67
2023-02-24T09:36:09.483Z,43.53
2023-02-24T09:38:59.892Z,40.85
2023-02-24T09:41:56.924Z,41.50
2023-02-24T09:44:36.743Z,50.35
2023-02-24T09:47:17.196Z,45.50
2023-02-24T09:49:50.696Z,50.50
2023-02-24T09:52:18.419Z,59.42
2023-02-24T09:55:12.751Z,57.25
2023-02-24T09:58:12.930Z,58.03
2023-02-24T10:00:44.261Z,55.22
2023-02-24T10:03:20.271Z,65.55
2023-02-24T10:06:12.274Z,55.80
2023-02-24T10:08:46.402Z,53.97
2023-02-24T10:11:14.273Z,50.30
2023-02-24T10:13:54.225Z,55.47
2023-02-24T10:16:23.961Z,56.10
2023-02-24T10:19:17.705Z,60.85
2023-02-24T10:22:03.267Z,46.60
2023-02-24T10:24:47.313Z,51.30
2023-02-24T10:27:25.037Z,48.60
2023-02-24T10:30:11.422Z,42.85
2023-02-24T10:32:41.905Z,41.30
2023-02-24T10:35:16.463Z,36.67
2023-02-24T10:37:43.768Z,42.63
2023-02-24T10:40:12.956Z,46.28
2023-02-24T10:42:48.821Z,52.85
2023-02-24T10:45:21.496Z,41.53
2023-02-24T10:47:57.278Z,41.40
2023-02-24T10:50:26.209Z,44.88
2023-02-24T10:52:57.331Z,43.15
2023-02-24T10:55:42.994Z,38.17
2023-02-24T10:58:56.879Z,51.35
2023-02-24T11:01:46.250Z,50.45
2023-02-24T11:04:28.051Z,57.20
2023-02-24T11:07:33.461Z,59.58
2023-02-24T11:10:13.691Z,60.08
2023-02-24T11:13:09.971Z,66.90
2023-02-24T11:16:16.029Z,54.72
2023-02-24T11:18:46.964Z,53.15
2023-02-24T11:21:14.445Z,64.53
2023-02-24T11:23:45.021Z,47.60
2023-02-24T11:26:31.233Z,47.83
2023-02-24T11:29:25.711Z,40.97
2023-02-24T11:32:30.538Z,45.53
2023-02-24T11:35:11.648Z,37.63
2023-02-24T11:37:46.019Z,41.72
2023-02-24T11:40:18.887Z,28.13
2023-02-24T11:42:50.359Z,30.13
2023-02-24T11:45:41.080Z,37.58
2023-02-24T11:48:17.433Z,29.42
2023-02-24T11:50:58.278Z,29.17
2023-02-24T11:53:27.713Z,32.22
2023-02-24T11:56:05.175Z,38.17
2023-02-24T11:58:46.601Z,33.55
2023-02-24T12:01:44.941Z,26.65
2023-02-24T12:04:28.617Z,28.10
2023-02-24T12:07:14.719Z,25.83
2023-02-24T12:09:50.929Z,26.25
2023-02-24T12:12:30.720Z,31.35
2023-02-24T12:15:00.622Z,34.83
2023-02-24T12:17:47.156Z,27.40
2023-02-24T12:21:01.037Z,29.38
2023-02-24T12:23:28.284Z,20.35
2023-02-24T12:26:15.652Z,26.88
2023-02-24T12:29:20.129Z,25.60
2023-02-24T12:32:04.801Z,25.60
2023-02-24T12:35:14.011Z,28.75
2023-02-24T12:37:53.258Z,30.10
2023-02-24T12:40:42.079Z,29.30
2023-02-24T12:43:31.857Z,32.72
2023-02-24T12:46:22.539Z,26.27
2023-02-24T12:49:28.666Z,33.38
2023-02-24T12:55:00.004Z,23.55
2023-02-24T12:57:57.803Z,30.27
2023-02-24T13:00:43.346Z,28.90
2023-02-24T13:03:23.571Z,37.55
2023-02-24T13:05:56.358Z,23.50
2023-02-24T13:08:37.853Z,30.38
2023-02-24T13:11:25.185Z,27.65
2023-02-24T13:14:12.211Z,24.65
2023-02-24T13:16:39.544Z,30.50
2023-02-24T13:19:26.491Z,34.05
2023-02-24T13:22:08.791Z,27.95
2023-02-24T13:24:36.816Z,21.83
2023-02-24T13:27:12.649Z,25.17
2023-02-24T13:29:57.801Z,26.15
2023-02-24T13:32:34.635Z,20.27
2023-02-24T13:35:15.505Z,34.00
2023-02-24T13:37:45.078Z,32.13
2023-02-24T13:40:23.712Z,28.80
2023-02-24T13:42:56.328Z,25.67
2023-02-24T13:45:25.559Z,29.10
2023-02-24T13:48:13.984Z,33.25
2023-02-24T13:51:01.324Z,37.78
2023-02-24T13:53:37.043Z,28.63
2023-02-24T13:56:45.643Z,32.33
2023-02-24T13:59:26.623Z,33.15
2023-02-24T14:02:14.391Z,37.88
2023-02-24T14:04:50.412Z,33.78
2023-02-24T14:07:25.659Z,33.97
2023-02-24T14:09:58.765Z,35.40
2023-02-24T14:12:28.078Z,37.45
2023-02-24T14:14:55.658Z,35.20
2023-02-24T14:17:30.994Z,32.38
2023-02-24T14:20:09.782Z,35.85
2023-02-24T14:22:44.579Z,32.13
2023-02-24T14:27:39.201Z,35.63
2023-02-24T14:30:08.048Z,37.53
2023-02-24T14:32:35.208Z,45.53
2023-02-24T14:35:02.062Z,45.35
2023-02-24T14:37:30.708Z,44.65
2023-02-24T14:39:59.650Z,46.83
2023-02-24T14:42:28.020Z,40.53
2023-02-24T14:44:57.685Z,36.17
2023-02-24T14:47:27.895Z,41.72
2023-02-24T14:49:59.314Z,39.92
2023-02-24T14:52:34.163Z,40.85
2023-02-24T14:55:18.011Z,43.58
2023-02-24T14:57:47.908Z,41.92
2023-02-24T15:00:24.749Z,41.15
2023-02-24T15:03:02.144Z,42.03
2023-02-24T15:05:29.124Z,42.22
2023-02-24T15:07:56.036Z,39.97
2023-02-24T15:10:25.478Z,47.78
2023-02-24T15:13:06.253Z,40.85
2023-02-24T15:15:38.422Z,46.78
2023-02-24T15:18:24.573Z,51.55
2023-02-24T15:21:00.857Z,41.67
2023-02-24T15:23:32.525Z,40.63
2023-02-24T15:25:59.620Z,46.90
2023-02-24T15:28:33.264Z,39.00
2023-02-24T15:31:08.518Z,38.92
2023-02-24T15:34:00.401Z,45.83
2023-02-24T15:36:32.263Z,43.40
2023-02-24T15:39:04.118Z,45.67
2023-02-24T15:41:42.646Z,47.47
2023-02-24T15:44:30.070Z,47.15
2023-02-24T15:46:58.274Z,53.03
2023-02-24T15:49:25.224Z,49.80
2023-02-24T15:51:53.665Z,48.13
2023-02-24T15:54:30.768Z,59.85
2023-02-24T15:57:02.091Z,58.47
2023-02-24T15:59:29.625Z,60.60
2023-02-24T16:01:56.689Z,61.33
2023-02-24T16:04:24.026Z,66.85
2023-02-24T16:06:56.936Z,69.32
2023-02-24T16:09:32.516Z,65.05
2023-02-24T16:11:59.409Z,69.65
2023-02-24T16:14:26.310Z,67.28
2023-02-24T16:16:53.127Z,68.45
2023-02-24T16:19:19.857Z,56.78
2023-02-24T16:21:46.511Z,59.15
2023-02-24T16:24:13.253Z,58.42
2023-02-24T16:26:40.505Z,62.90
2023-02-24T16:29:11.567Z,55.22
2023-02-24T16:31:39.533Z,55.08
2023-02-24T16:34:07.077Z,54.42
2023-02-24T16:36:34.414Z,49.67
2023-02-24T16:39:01.211Z,46.50
2023-02-24T16:41:28.004Z,48.85
2023-02-24T16:43:54.721Z,56.75
2023-02-24T16:46:22.991Z,45.95
2023-02-24T16:48:53.193Z,38.72
2023-02-24T16:51:20.438Z,37.53
2023-02-24T16:53:47.177Z,38.92
2023-02-24T16:56:15.178Z,40.38
2023-02-24T16:58:42.001Z,41.75
2023-02-24T17:01:09.585Z,40.65
2023-02-24T17:03:47.355Z,42.97
2023-02-24T17:06:14.155Z,43.08
2023-02-24T17:08:45.976Z,46.45
2023-02-24T17:11:14.794Z,45.28
2023-02-24T17:13:41.868Z,48.60
2023-02-24T17:16:08.541Z,50.13
2023-02-24T17:18:35.558Z,49.50
2023-02-24T17:21:03.458Z,43.67
2023-02-24T17:23:30.244Z,47.63
2023-02-24T17:25:59.922Z,48.65
2023-02-24T17:28:27.126Z,51.20
2023-02-24T17:30:53.915Z,47.33
2023-02-24T17:33:20.843Z,44.25
2023-02-24T17:35:48.142Z,41.35
2023-02-24T17:38:17.343Z,37.05
2023-02-24T17:40:44.937Z,40.83
2023-02-24T17:43:12.028Z,44.00
2023-02-24T17:45:43.022Z,37.78
2023-02-24T17:48:10.201Z,36.35
2023-02-24T17:50:37.029Z,37.03
2023-02-24T17:53:03.841Z,37.88
2023-02-24T17:55:30.480Z,39.05
2023-02-24T17:57:59.677Z,36.10
2023-02-24T18:00:26.972Z,47.00
2023-02-24T18:02:54.515Z,37.50
2023-02-24T18:05:21.311Z,40.65
2023-02-24T18:07:48.030Z,37.22
2023-02-24T18:10:14.716Z,38.70
2023-02-24T18:12:41.398Z,37.15
2023-02-24T18:15:09.620Z,34.30
2023-02-24T18:17:37.977Z,45.28
2023-02-24T18:20:06.792Z,42.15
2023-02-24T18:22:33.775Z,36.05
2023-02-24T18:25:01.102Z,36.97
2023-02-24T18:27:28.069Z,35.42
2023-02-24T18:29:54.905Z,43.35
2023-02-24T18:32:22.030Z,39.78
2023-02-24T18:34:48.905Z,47.10
2023-02-24T18:37:15.588Z,38.75
2023-02-24T18:39:42.289Z,39.25
2023-02-24T18:42:09.591Z,45.45
2023-02-24T18:44:36.286Z,51.53
2023-02-24T18:47:09.176Z,46.45
2023-02-24T18:49:36.876Z,51.20
2023-02-24T18:52:05.251Z,44.58
2023-02-24T18:54:33.623Z,45.28
2023-02-24T18:57:00.464Z,42.67
2023-02-24T18:59:27.196Z,44.75
2023-02-24T19:01:56.585Z,44.75
2023-02-24T19:04:24.109Z,48.83
2023-02-24T19:06:50.850Z,50.45
2023-02-24T19:09:21.496Z,44.10
2023-02-24T19:11:49.538Z,44.22
2023-02-24T19:14:16.314Z,37.75
2023-02-24T19:16:43.261Z,40.85
2023-02-24T19:19:13.816Z,43.28
2023-02-24T19:21:40.673Z,41.28
2023-02-24T19:24:08.392Z,45.97
2023-02-24T19:26:35.324Z,44.88
2023-02-24T19:29:02.351Z,48.67
2023-02-24T19:31:31.140Z,45.72
2023-02-24T19:34:01.343Z,48.78
2023-02-24T19:36:29.791Z,47.67
2023-02-24T19:38:56.512Z,54.33
2023-02-24T19:41:23.269Z,48.90
2023-02-24T19:43:49.985Z,49.22
2023-02-24T19:46:17.367Z,56.97
2023-02-24T19:48:44.317Z,48.17
2023-02-24T19:51:17.186Z,55.20
2023-02-24T19:53:44.512Z,56.58
2023-02-24T19:56:11.393Z,50.60
2023-02-24T19:58:39.145Z,50.00
2023-02-24T20:01:09.606Z,47.28
2023-02-24T20:03:38.325Z,54.95
2023-02-24T20:06:05.655Z,57.25
2023-02-24T20:08:34.767Z,59.53
2023-02-24T20:11:03.538Z,60.13
2023-02-24T20:13:30.421Z,51.80
2023-02-24T20:16:08.848Z,52.35
2023-02-24T20:18:35.573Z,51.17
2023-02-24T20:21:02.578Z,48.63
2023-02-24T20:23:29.908Z,47.40
2023-02-24T20:25:57.084Z,48.65
2023-02-24T20:28:24.355Z,51.25
2023-02-24T20:30:51.458Z,47.22
2023-02-24T20:33:18.624Z,53.83
2023-02-24T20:35:48.546Z,54.88
2023-02-24T20:38:15.664Z,51.70
2023-02-24T20:40:42.670Z,52.95
2023-02-24T20:43:10.160Z,54.45
2023-02-24T20:45:38.605Z,49.40
2023-02-24T20:48:06.600Z,43.53
2023-02-24T20:50:34.222Z,44.58
2023-02-24T20:53:03.365Z,43.55
2023-02-24T20:55:30.605Z,54.13
2023-02-24T20:57:57.292Z,47.63
2023-02-24T21:00:24.340Z,42.80
2023-02-24T21:02:51.162Z,46.42
2023-02-24T21:05:23.648Z,45.90
2023-02-24T21:07:50.786Z,36.67
2023-02-24T21:10:18.641Z,36.95
2023-02-24T21:12:45.897Z,33.70
2023-02-24T21:15:12.676Z,35.88
2023-02-24T21:17:39.965Z,43.80
2023-02-24T21:20:11.145Z,43.40
2023-02-24T21:22:41.911Z,33.55
2023-02-24T21:25:12.727Z,36.65
2023-02-24T21:27:39.482Z,34.38
2023-02-24T21:30:07.825Z,29.25
2023-02-24T21:32:34.947Z,34.78
2023-02-24T21:35:02.207Z,36.00
2023-02-24T21:37:29.256Z,36.45
2023-02-24T21:39:55.924Z,39.05
2023-02-24T21:42:22.845Z,44.65
2023-02-24T21:44:51.079Z,51.30
2023-02-24T21:47:18.620Z,32.10
2023-02-24T21:49:46.186Z,21.35
2023-02-24T21:52:13.101Z,16.52
2023-02-24T21:54:40.119Z,19.38
2023-02-24T21:57:07.745Z,20.98
2023-02-24T21:59:34.458Z,36.33
2023-02-24T22:02:01.209Z,28.08
2023-02-24T22:04:28.117Z,21.90
2023-02-24T22:06:54.852Z,16.15
2023-02-24T22:09:21.727Z,27.33
2023-02-24T22:11:49.371Z,20.45
2023-02-24T22:14:16.317Z,23.75
2023-02-24T22:16:43.376Z,26.08
2023-02-24T22:19:10.882Z,24.52
2023-02-24T22:21:39.566Z,27.02
2023-02-24T22:24:06.650Z,24.92
2023-02-24T22:26:33.420Z,40.22
2023-02-24T22:29:01.021Z,53.47
2023-02-24T22:31:30.223Z,89.53
2023-02-24T22:33:57.433Z,49.35
2023-02-24T22:36:30.912Z,65.57
2023-02-24T22:38:59.405Z,51.95
2023-02-24T22:41:28.507Z,39.42
2023-02-24T22:43:55.383Z,43.30
2023-02-24T22:46:29.613Z,33.03
2023-02-24T22:48:57.435Z,33.08
2023-02-24T22:51:24.916Z,33.75
2023-02-24T22:53:52.352Z,38.30
2023-02-24T22:56:22.825Z,36.95
2023-02-24T22:58:49.984Z,49.78
2023-02-24T23:01:19.712Z,36.85
2023-02-24T23:03:46.628Z,43.22
2023-02-24T23:06:15.866Z,55.63
2023-02-24T23:08:44.644Z,48.42
2023-02-24T23:11:24.795Z,42.10
2023-02-24T23:13:51.804Z,54.05
2023-02-24T23:16:22.111Z,50.67
2023-02-24T23:18:50.826Z,51.50
2023-02-24T23:21:26.173Z,49.22
2023-02-24T23:23:56.778Z,43.10
2023-02-24T23:26:31.537Z,45.33
2023-02-24T23:31:25.333Z,43.50
2023-02-24T23:33:53.116Z,39.53
2023-02-24T23:36:19.814Z,47.92
2023-02-24T23:38:46.576Z,47.30
2023-02-24T23:41:13.646Z,55.65
2023-02-24T23:43:40.938Z,47.97
2023-02-24T23:46:12.501Z,43.65
2023-02-24T23:48:39.711Z,42.40
2023-02-24T23:51:12.841Z,41.95
2023-02-24T23:53:42.067Z,35.80
2023-02-24T23:56:15.656Z,39.78
2023-02-24T23:58:42.492Z,32.95
